Time;durP1;ratioP1;P1;durP2;ratioP2;P2;SDS_P1;SDS_P2;PMS_P1;PMS_P2;Temp;Humidity;BMP_temperature;BMP_pressure;BME280_temperature;BME280_humidity;BME280_pressure;Samples;Min_cycle;Max_cycle;Signal;HPM_P1;HPM_P2
2021/10/13 00:01:24;;;;;;;2.90;2.33;;;6.40;99.90;;;;;;4995826;28;20372;-63
2021/10/13 00:03:52;;;;;;;3.10;2.70;;;6.50;99.90;;;;;;4990744;28;20241;-65
2021/10/13 00:06:22;;;;;;;3.70;2.57;;;6.50;99.90;;;;;;4996064;28;20265;-65
2021/10/13 00:08:50;;;;;;;4.33;2.73;;;6.40;99.90;;;;;;4994184;28;20251;-65
2021/10/13 00:11:18;;;;;;;4.97;2.53;;;6.20;99.90;;;;;;4992668;28;20653;-64
2021/10/13 00:13:46;;;;;;;5.00;2.40;;;6.20;99.90;;;;;;4989729;28;20226;-65
2021/10/13 00:16:15;;;;;;;5.43;2.50;;;6.20;99.90;;;;;;5000045;28;20243;-65
2021/10/13 00:18:43;;;;;;;3.57;2.10;;;6.00;99.90;;;;;;4999005;28;20233;-66
2021/10/13 00:21:11;;;;;;;4.30;2.43;;;5.90;99.90;;;;;;4992267;28;20365;-66
2021/10/13 00:23:40;;;;;;;4.40;2.17;;;5.80;99.90;;;;;;4989615;28;20234;-64
2021/10/13 00:26:28;;;;;;;4.46;2.07;;;5.70;99.90;;;;;;2657840;28;10003381;-65
2021/10/13 00:28:56;;;;;;;6.77;2.40;;;5.60;99.90;;;;;;3942593;28;10001041;-66
2021/10/13 00:31:24;;;;;;;5.43;2.60;;;5.60;99.90;;;;;;4993129;28;20476;-63
2021/10/13 00:33:52;;;;;;;7.20;3.27;;;5.60;99.90;;;;;;4991857;28;20295;-65
2021/10/13 00:36:20;;;;;;;8.20;3.10;;;5.60;99.90;;;;;;4987173;28;20238;-66
2021/10/13 00:38:50;;;;;;;4.67;3.00;;;5.60;99.90;;;;;;4992607;28;20750;-64
2021/10/13 00:41:18;;;;;;;5.53;3.10;;;5.60;99.90;;;;;;4995861;28;20246;-66
2021/10/13 00:43:46;;;;;;;6.07;2.90;;;5.60;99.90;;;;;;4992899;28;20670;-66
2021/10/13 00:46:14;;;;;;;5.97;3.50;;;5.70;99.90;;;;;;5000352;28;20236;-66
2021/10/13 00:48:42;;;;;;;7.57;3.07;;;5.60;99.90;;;;;;4994532;28;20237;-65
2021/10/13 00:51:10;;;;;;;4.10;2.67;;;5.80;99.90;;;;;;4996541;28;20491;-66
2021/10/13 00:53:39;;;;;;;2.93;2.50;;;5.60;99.90;;;;;;4992977;28;20232;-66
2021/10/13 00:56:26;;;;;;;3.27;2.33;;;5.60;99.90;;;;;;4984283;28;20245;-65
2021/10/13 00:58:54;;;;;;;2.87;2.57;;;5.60;99.90;;;;;;4987367;28;20600;-68
2021/10/13 01:01:27;;;;;;;2.50;2.10;;;5.70;99.90;;;;;;4990063;28;20337;-68
2021/10/13 01:04:13;;;;;;;3.33;2.40;;;5.80;99.90;;;;;;4990718;28;20740;-68
2021/10/13 01:06:47;;;;;;;2.10;2.00;;;5.70;99.90;;;;;;4991557;28;20247;-67
2021/10/13 01:09:21;;;;;;;1.67;1.57;;;5.50;99.90;;;;;;4994233;28;20323;-68
2021/10/13 01:12:01;;;;;;;2.27;2.07;;;5.50;99.90;;;;;;4994279;28;20257;-68
2021/10/13 01:14:42;;;;;;;2.00;1.80;;;5.40;99.90;;;;;;4996845;28;20235;-67
2021/10/13 01:17:20;;;;;;;2.47;2.00;;;5.40;99.90;;;;;;4990748;28;20224;-68
2021/10/13 01:20:01;;;;;;;2.27;2.00;;;5.50;99.90;;;;;;4992438;28;20256;-68
2021/10/13 01:23:00;;;;;;;2.40;2.20;;;5.70;99.90;;;;;;4978559;28;20643;-69
2021/10/13 01:25:40;;;;;;;3.10;2.43;;;5.60;99.90;;;;;;4988803;28;20317;-68
2021/10/13 01:28:12;;;;;;;2.67;2.40;;;5.60;99.90;;;;;;4998425;28;20684;-68
2021/10/13 01:30:45;;;;;;;2.37;2.10;;;5.80;99.90;;;;;;4992549;28;20240;-68
2021/10/13 01:33:18;;;;;;;3.37;2.07;;;5.60;99.90;;;;;;5000284;28;20542;-67
2021/10/13 01:35:50;;;;;;;3.20;2.20;;;5.60;99.90;;;;;;4994109;28;20260;-67
2021/10/13 01:38:20;;;;;;;3.37;2.73;;;5.70;99.90;;;;;;4989952;28;20314;-68
2021/10/13 01:40:52;;;;;;;3.13;2.40;;;5.80;99.90;;;;;;4989049;28;20361;-68
2021/10/13 01:43:23;;;;;;;5.20;2.20;;;5.80;99.90;;;;;;4993368;28;20239;-68
2021/10/13 01:45:52;;;;;;;2.87;2.10;;;5.70;99.90;;;;;;4988742;28;20254;-67
2021/10/13 01:48:22;;;;;;;2.97;2.30;;;5.80;99.90;;;;;;4989049;28;20324;-68
2021/10/13 01:50:53;;;;;;;2.67;2.47;;;5.80;99.90;;;;;;4993922;28;20324;-68
2021/10/13 01:53:23;;;;;;;2.00;1.80;;;5.90;99.90;;;;;;4991088;28;20677;-68
2021/10/13 01:55:52;;;;;;;4.83;2.00;;;5.60;99.90;;;;;;5004226;28;20363;-68
2021/10/13 01:58:23;;;;;;;3.17;2.10;;;5.80;99.90;;;;;;4992021;28;20920;-68
2021/10/13 02:00:52;;;;;;;2.13;1.93;;;5.70;99.90;;;;;;4992239;28;20494;-67
2021/10/13 02:03:24;;;;;;;5.73;2.23;;;5.70;99.90;;;;;;4991311;28;20543;-67
2021/10/13 02:05:56;;;;;;;2.50;2.27;;;5.70;99.90;;;;;;4992875;28;20334;-68
2021/10/13 02:08:25;;;;;;;2.83;2.60;;;5.70;99.90;;;;;;4993375;28;20663;-68
2021/10/13 02:10:56;;;;;;;2.90;2.27;;;5.70;99.90;;;;;;4993180;28;20892;-66
2021/10/13 02:13:31;;;;;;;2.10;1.90;;;5.60;99.90;;;;;;4995998;28;20601;-67
2021/10/13 02:16:00;;;;;;;2.37;1.70;;;5.40;99.90;;;;;;5003750;28;20744;-64
2021/10/13 02:18:30;;;;;;;2.17;1.87;;;5.50;99.90;;;;;;5001470;28;21019;-65
2021/10/13 02:21:00;;;;;;;2.00;1.70;;;5.40;99.90;;;;;;4996179;28;20480;-65
2021/10/13 02:23:32;;;;;;;2.33;1.53;;;5.20;99.90;;;;;;4996052;28;20516;-65
2021/10/13 02:26:08;;;;;;;2.53;1.90;;;5.40;99.90;;;;;;4998489;28;20465;-65
2021/10/13 02:28:41;;;;;;;2.43;1.93;;;5.30;99.90;;;;;;4991667;28;20487;-65
2021/10/13 02:31:09;;;;;;;2.20;2.00;;;5.30;99.90;;;;;;4996089;28;20481;-65
2021/10/13 02:33:38;;;;;;;3.13;1.93;;;5.20;99.90;;;;;;4993610;28;20481;-65
2021/10/13 02:36:07;;;;;;;1.97;1.80;;;5.10;99.90;;;;;;4999875;28;20563;-68
2021/10/13 02:38:35;;;;;;;3.83;1.90;;;5.10;99.90;;;;;;4997862;28;20480;-68
2021/10/13 02:41:03;;;;;;;2.67;1.70;;;5.00;99.90;;;;;;4996597;28;20552;-67
2021/10/13 02:43:32;;;;;;;2.10;1.90;;;5.00;99.90;;;;;;4982703;28;20477;-66
2021/10/13 02:46:12;;;;;;;2.07;1.80;;;5.00;99.90;;;;;;4997584;28;20239;-67
2021/10/13 02:48:45;;;;;;;2.07;1.73;;;5.10;99.90;;;;;;4996989;28;20556;-68
2021/10/13 02:51:18;;;;;;;1.80;1.70;;;5.00;99.90;;;;;;4993259;28;20564;-68
2021/10/13 02:53:52;;;;;;;2.57;1.67;;;5.00;99.90;;;;;;4992241;28;20580;-67
2021/10/13 02:56:23;;;;;;;3.57;2.10;;;4.90;99.90;;;;;;4998477;28;20510;-67
2021/10/13 02:59:00;;;;;;;2.57;2.03;;;4.90;99.90;;;;;;4990870;28;20482;-68
2021/10/13 03:01:35;;;;;;;2.70;2.50;;;5.10;99.90;;;;;;4987580;28;20562;-68
2021/10/13 03:04:05;;;;;;;2.97;2.73;;;5.10;99.90;;;;;;4984000;28;20903;-68
2021/10/13 03:06:39;;;;;;;2.67;2.47;;;5.00;99.90;;;;;;4991018;28;20469;-66
2021/10/13 03:09:09;;;;;;;2.83;1.93;;;5.10;99.90;;;;;;4997858;28;20579;-68
2021/10/13 03:11:40;;;;;;;4.23;2.30;;;5.10;99.90;;;;;;4988593;28;20535;-66
2021/10/13 03:14:08;;;;;;;2.53;2.30;;;5.00;99.90;;;;;;4994415;28;20488;-68
2021/10/13 03:16:40;;;;;;;2.63;2.40;;;4.90;99.90;;;;;;4995147;28;20488;-66
2021/10/13 03:19:09;;;;;;;3.70;2.70;;;5.10;99.90;;;;;;4995970;28;20839;-68
2021/10/13 03:21:40;;;;;;;3.70;2.87;;;5.20;99.90;;;;;;4997567;28;20236;-67
2021/10/13 03:24:08;;;;;;;3.67;2.63;;;5.20;99.90;;;;;;4996063;28;20896;-67
2021/10/13 03:26:37;;;;;;;2.70;2.13;;;5.20;99.90;;;;;;4996611;28;20516;-68
2021/10/13 03:29:05;;;;;;;3.20;2.57;;;5.00;99.90;;;;;;5005354;28;20512;-68
2021/10/13 03:31:33;;;;;;;2.83;2.20;;;5.00;99.90;;;;;;4991156;28;20477;-65
2021/10/13 03:34:02;;;;;;;3.50;2.80;;;5.00;99.90;;;;;;4995129;28;20274;-67
2021/10/13 03:36:38;;;;;;;3.63;2.97;;;5.30;99.90;;;;;;4987787;28;20829;-67
2021/10/13 03:39:06;;;;;;;3.27;2.20;;;5.30;99.90;;;;;;4992034;28;20494;-68
2021/10/13 03:41:34;;;;;;;3.30;2.00;;;5.10;99.90;;;;;;4987242;28;20550;-68
2021/10/13 03:44:03;;;;;;;2.60;2.03;;;4.90;99.90;;;;;;4997772;28;20578;-68
2021/10/13 03:46:31;;;;;;;2.77;2.23;;;4.80;99.90;;;;;;4989279;28;20467;-68
2021/10/13 03:49:00;;;;;;;3.70;2.40;;;5.00;99.90;;;;;;4997961;28;20473;-67
2021/10/13 03:51:29;;;;;;;3.73;2.50;;;4.80;99.90;;;;;;4999762;28;20467;-67
2021/10/13 03:53:58;;;;;;;2.80;2.50;;;4.70;99.90;;;;;;4998948;28;20492;-67
2021/10/13 03:56:26;;;;;;;2.27;2.07;;;4.70;99.90;;;;;;4986365;28;21009;-67
2021/10/13 03:58:54;;;;;;;3.07;2.47;;;4.70;99.90;;;;;;4997579;28;20609;-67
2021/10/13 04:01:22;;;;;;;2.17;1.97;;;4.60;99.90;;;;;;4991184;28;20582;-67
2021/10/13 04:03:50;;;;;;;2.70;2.37;;;4.70;99.90;;;;;;4985337;28;20492;-68
2021/10/13 04:06:19;;;;;;;5.67;3.07;;;4.70;99.90;;;;;;4989500;28;20534;-67
2021/10/13 04:08:48;;;;;;;4.17;3.13;;;4.80;99.90;;;;;;4990463;28;20477;-67
2021/10/13 04:11:16;;;;;;;7.70;4.00;;;4.90;99.90;;;;;;5001313;28;20491;-67
2021/10/13 04:13:48;;;;;;;4.00;3.57;;;5.10;99.90;;;;;;4991709;28;20840;-66
2021/10/13 04:16:16;;;;;;;5.53;3.33;;;5.30;99.90;;;;;;4989291;28;20483;-68
2021/10/13 04:18:44;;;;;;;7.30;4.40;;;5.20;99.90;;;;;;4987947;28;20303;-66
2021/10/13 04:21:12;;;;;;;5.70;3.63;;;5.40;99.90;;;;;;4990622;28;20582;-64
2021/10/13 04:23:40;;;;;;;5.23;3.93;;;5.10;99.90;;;;;;4993562;28;20500;-67
2021/10/13 04:26:10;;;;;;;9.13;4.70;;;5.20;99.90;;;;;;4996573;28;20479;-68
2021/10/13 04:28:38;;;;;;;6.87;4.70;;;5.40;99.90;;;;;;4988531;28;21075;-69
2021/10/13 04:31:06;;;;;;;5.30;3.93;;;5.40;99.90;;;;;;4985260;28;20752;-69
2021/10/13 04:33:34;;;;;;;6.07;3.40;;;5.10;99.90;;;;;;4987087;28;20473;-66
2021/10/13 04:36:03;;;;;;;5.10;3.00;;;4.90;99.90;;;;;;4989414;28;20568;-65
2021/10/13 04:38:31;;;;;;;8.60;3.80;;;4.80;99.90;;;;;;4988600;28;20552;-65
2021/10/13 04:40:59;;;;;;;7.60;4.67;;;5.00;99.90;;;;;;4982167;28;20481;-66
2021/10/13 04:43:28;;;;;;;7.77;5.30;;;5.10;99.90;;;;;;4986982;28;20477;-63
2021/10/13 04:45:56;;;;;;;5.13;3.87;;;5.10;99.90;;;;;;4980705;28;20476;-66
2021/10/13 04:48:24;;;;;;;4.13;3.70;;;4.80;99.90;;;;;;4985523;28;20999;-66
2021/10/13 04:50:53;;;;;;;4.63;4.07;;;4.70;99.90;;;;;;4985008;28;20701;-67
2021/10/13 04:53:21;;;;;;;9.27;5.33;;;5.00;99.90;;;;;;4985936;28;21026;-68
2021/10/13 04:55:49;;;;;;;4.77;4.20;;;5.00;99.90;;;;;;4986365;28;20512;-69
2021/10/13 04:58:17;;;;;;;4.60;4.07;;;4.80;99.90;;;;;;4984760;28;20481;-68
2021/10/13 05:00:46;;;;;;;6.73;4.93;;;4.80;99.90;;;;;;4983273;28;20525;-68
2021/10/13 05:03:15;;;;;;;7.90;4.60;;;5.00;99.90;;;;;;4987136;28;20492;-68
2021/10/13 05:05:43;;;;;;;4.87;4.03;;;4.90;99.90;;;;;;4986932;28;20485;-69
2021/10/13 05:08:11;;;;;;;5.67;3.90;;;4.70;99.90;;;;;;4981873;28;20488;-69
2021/10/13 05:10:40;;;;;;;3.87;3.53;;;4.70;99.90;;;;;;4980403;28;20516;-69
2021/10/13 05:13:08;;;;;;;5.00;4.20;;;4.50;99.90;;;;;;4985683;28;20922;-68
2021/10/13 05:15:37;;;;;;;4.50;4.10;;;4.60;99.90;;;;;;4983635;28;20233;-69
2021/10/13 05:18:07;;;;;;;4.30;3.63;;;4.60;99.90;;;;;;4981730;28;20791;-69
2021/10/13 05:20:36;;;;;;;4.27;3.63;;;4.70;99.90;;;;;;4987545;28;20894;-69
2021/10/13 05:23:04;;;;;;;4.03;3.33;;;4.60;99.90;;;;;;4985529;28;20513;-69
2021/10/13 05:25:33;;;;;;;4.20;3.30;;;4.50;99.90;;;;;;4983053;28;20464;-67
2021/10/13 05:28:01;;;;;;;5.73;3.93;;;4.50;99.90;;;;;;4986790;28;20485;-70
2021/10/13 05:30:29;;;;;;;6.23;5.07;;;4.50;99.90;;;;;;4984828;28;20472;-68
2021/10/13 05:32:57;;;;;;;8.83;7.40;;;4.70;99.90;;;;;;4992248;28;20495;-68
2021/10/13 05:35:26;;;;;;;6.97;5.57;;;5.00;99.90;;;;;;4990043;28;21042;-68
2021/10/13 05:37:55;;;;;;;4.70;4.20;;;4.90;99.90;;;;;;4989550;28;20511;-65
2021/10/13 05:40:26;;;;;;;5.33;4.07;;;4.60;99.90;;;;;;4989348;28;20465;-66
2021/10/13 05:42:54;;;;;;;4.20;3.80;;;4.50;99.90;;;;;;4990818;28;20484;-69
2021/10/13 05:45:22;;;;;;;5.07;3.60;;;4.40;99.90;;;;;;4989450;28;20488;-69
2021/10/13 05:47:50;;;;;;;5.00;3.87;;;4.30;99.90;;;;;;4991241;28;21459;-66
2021/10/13 05:50:19;;;;;;;4.30;3.60;;;4.30;99.90;;;;;;4990183;28;20965;-66
2021/10/13 05:52:48;;;;;;;4.60;3.90;;;4.30;99.90;;;;;;4988156;28;20983;-66
2021/10/13 05:55:36;;;;;;;5.53;4.47;;;4.30;99.90;;;;;;4990598;28;20487;-67
2021/10/13 05:58:06;;;;;;;7.00;4.87;;;4.30;99.90;;;;;;4988402;28;20581;-68
2021/10/13 06:00:34;;;;;;;4.93;4.33;;;4.30;99.90;;;;;;4987975;28;20479;-67
2021/10/13 06:03:02;;;;;;;6.40;4.93;;;4.30;99.90;;;;;;4989420;28;20559;-67
2021/10/13 06:05:30;;;;;;;5.77;4.87;;;4.30;99.90;;;;;;4986599;28;20569;-68
2021/10/13 06:08:00;;;;;;;5.60;5.00;;;4.30;99.90;;;;;;4988103;28;20475;-67
2021/10/13 06:10:28;;;;;;;6.00;5.30;;;4.30;99.90;;;;;;4988509;28;20851;-67
2021/10/13 06:12:56;;;;;;;6.43;5.23;;;4.30;99.90;;;;;;4987725;28;20591;-66
2021/10/13 06:15:29;;;;;;;4.93;4.33;;;4.30;99.90;;;;;;4987751;28;20468;-67
2021/10/13 06:17:57;;;;;;;6.90;4.53;;;4.40;99.90;;;;;;4987663;28;20575;-65
2021/10/13 06:20:25;;;;;;;5.40;4.90;;;4.50;99.90;;;;;;4987557;28;20477;-68
2021/10/13 06:22:54;;;;;;;4.47;4.00;;;4.60;99.90;;;;;;4987368;28;20476;-66
2021/10/13 06:25:27;;;;;;;6.40;4.10;;;4.70;99.90;;;;;;4989550;28;20492;-66
2021/10/13 06:27:56;;;;;;;5.07;3.90;;;4.80;99.90;;;;;;4988632;28;20847;-69
2021/10/13 06:30:24;;;;;;;5.23;4.17;;;4.80;99.90;;;;;;4987724;28;20566;-67
2021/10/13 06:32:52;;;;;;;6.07;4.67;;;4.90;99.90;;;;;;4986437;28;20588;-69
2021/10/13 06:35:20;;;;;;;5.17;4.67;;;5.00;99.90;;;;;;4986414;28;20486;-70
2021/10/13 06:37:49;;;;;;;5.20;4.70;;;5.00;99.90;;;;;;4987984;28;20488;-69
2021/10/13 06:40:18;;;;;;;5.37;4.57;;;5.20;99.90;;;;;;4986582;28;20642;-69
2021/10/13 06:42:47;;;;;;;6.43;5.23;;;5.30;99.90;;;;;;4992898;28;20494;-68
2021/10/13 06:45:16;;;;;;;5.97;5.20;;;5.50;99.90;;;;;;4986642;28;20363;-68
2021/10/13 06:47:44;;;;;;;5.40;4.77;;;5.70;99.90;;;;;;4992260;28;20682;-69
2021/10/13 06:50:12;;;;;;;4.83;4.33;;;5.70;99.90;;;;;;4990121;28;20264;-70
2021/10/13 06:52:40;;;;;;;6.40;4.87;;;5.90;99.90;;;;;;4987532;28;21051;-69
2021/10/13 06:55:09;;;;;;;4.60;4.20;;;6.10;99.90;;;;;;4986965;28;20896;-68
2021/10/13 06:57:38;;;;;;;3.60;3.30;;;6.10;99.90;;;;;;4993046;28;20233;-68
2021/10/13 07:00:08;;;;;;;6.73;3.70;;;6.20;99.90;;;;;;4988182;28;20241;-67
2021/10/13 07:02:37;;;;;;;4.17;3.77;;;6.20;99.90;;;;;;4991617;28;20564;-67
2021/10/13 07:05:05;;;;;;;3.90;3.50;;;6.30;99.90;;;;;;4988200;28;20248;-68
2021/10/13 07:07:34;;;;;;;4.47;3.50;;;6.30;99.90;;;;;;4992246;28;20695;-67
2021/10/13 07:10:02;;;;;;;3.20;2.90;;;6.30;99.90;;;;;;4995649;28;20261;-70
2021/10/13 07:12:33;;;;;;;3.30;2.83;;;6.30;99.90;;;;;;4988997;28;20244;-69
2021/10/13 07:15:01;;;;;;;3.80;3.00;;;6.30;99.90;;;;;;4991000;28;20484;-69
2021/10/13 07:17:30;;;;;;;3.60;3.07;;;6.30;99.90;;;;;;4988788;28;20480;-67
2021/10/13 07:20:01;;;;;;;3.00;2.77;;;6.40;99.90;;;;;;4994420;28;20610;-70
2021/10/13 07:22:30;;;;;;;3.60;2.90;;;6.40;99.90;;;;;;4985666;28;20636;-67
2021/10/13 07:25:00;;;;;;;3.23;2.73;;;6.40;99.90;;;;;;4999204;28;20240;-66
2021/10/13 07:27:30;;;;;;;4.20;3.10;;;6.50;99.90;;;;;;4993055;28;20241;-69
2021/10/13 07:29:58;;;;;;;3.93;3.03;;;6.50;99.90;;;;;;5001172;28;20241;-68
2021/10/13 07:32:28;;;;;;;3.43;3.00;;;6.60;99.90;;;;;;4993952;28;20394;-68
2021/10/13 07:35:17;;;;;;;4.10;2.70;;;6.70;99.90;;;;;;4994808;28;20315;-67
2021/10/13 07:37:45;;;;;;;2.83;2.60;;;6.70;99.90;;;;;;4988794;28;20238;-67
2021/10/13 07:40:13;;;;;;;3.37;3.07;;;6.70;99.90;;;;;;4990196;28;20230;-67
2021/10/13 07:42:43;;;;;;;3.37;2.90;;;6.80;99.90;;;;;;4993079;28;20312;-63
2021/10/13 07:45:11;;;;;;;5.87;2.90;;;6.80;99.90;;;;;;4993504;28;20229;-67
2021/10/13 07:47:40;;;;;;;4.40;3.33;;;6.80;99.90;;;;;;4987528;28;20237;-64
2021/10/13 07:50:09;;;;;;;3.60;2.80;;;6.80;99.90;;;;;;4993537;28;20233;-64
2021/10/13 07:52:38;;;;;;;3.90;3.03;;;6.80;99.90;;;;;;4990786;28;20309;-67
2021/10/13 07:55:07;;;;;;;4.10;2.87;;;6.70;99.90;;;;;;4997242;28;20315;-67
2021/10/13 07:57:36;;;;;;;3.67;3.03;;;6.70;99.90;;;;;;4999090;28;20577;-66
2021/10/13 08:00:06;;;;;;;3.57;3.27;;;6.90;99.90;;;;;;4997351;28;20234;-66
2021/10/13 08:02:44;;;;;;;4.27;2.77;;;7.20;99.90;;;;;;4990372;28;20594;-67
2021/10/13 08:05:13;;;;;;;3.17;2.80;;;7.40;99.90;;;;;;4989332;28;20245;-63
2021/10/13 08:07:43;;;;;;;4.03;2.33;;;7.60;99.90;;;;;;5003007;28;20287;-67
2021/10/13 08:10:11;;;;;;;4.07;3.00;;;7.90;99.90;;;;;;4997678;28;20237;-67
2021/10/13 08:12:39;;;;;;;3.43;2.90;;;8.20;99.90;;;;;;4988044;28;20236;-67
2021/10/13 08:15:09;;;;;;;2.90;2.60;;;8.20;99.90;;;;;;4993967;28;20233;-66
2021/10/13 08:17:37;;;;;;;4.27;3.27;;;8.10;99.90;;;;;;4991531;28;20238;-67
2021/10/13 08:20:08;;;;;;;3.23;2.93;;;8.10;99.90;;;;;;4992359;28;20705;-66
2021/10/13 08:22:36;;;;;;;5.40;2.80;;;8.00;99.90;;;;;;4985863;28;20238;-67
2021/10/13 08:25:07;;;;;;;4.63;2.90;;;8.00;99.90;;;;;;4995789;28;20233;-67
2021/10/13 08:27:36;;;;;;;3.47;2.60;;;8.10;99.90;;;;;;4989416;28;20241;-66
2021/10/13 08:30:05;;;;;;;4.07;3.20;;;8.10;99.90;;;;;;4997918;28;20319;-64
2021/10/13 08:32:33;;;;;;;5.23;2.87;;;8.10;99.90;;;;;;4992816;28;20328;-67
2021/10/13 08:35:01;;;;;;;3.03;2.67;;;8.20;99.90;;;;;;4991370;28;20229;-66
2021/10/13 08:37:29;;;;;;;2.63;2.43;;;8.20;99.90;;;;;;4982268;28;20242;-65
2021/10/13 08:39:57;;;;;;;3.80;2.47;;;8.20;99.90;;;;;;4993866;28;20320;-66
2021/10/13 08:42:27;;;;;;;4.13;2.53;;;8.20;99.90;;;;;;4983484;28;20249;-66
2021/10/13 08:44:57;;;;;;;3.80;2.60;;;8.40;99.90;;;;;;4994261;28;20258;-66
2021/10/13 08:47:25;;;;;;;3.50;2.50;;;8.50;99.90;;;;;;4988794;28;20582;-66
2021/10/13 08:49:55;;;;;;;3.80;2.27;;;8.60;99.90;;;;;;4986886;28;20252;-65
2021/10/13 08:52:24;;;;;;;4.00;2.33;;;8.80;99.90;;;;;;4985547;28;20720;-66
2021/10/13 08:54:55;;;;;;;2.83;2.30;;;9.00;99.90;;;;;;4981045;28;20241;-66
2021/10/13 08:57:28;;;;;;;4.90;2.30;;;9.10;99.90;;;;;;4992772;28;20242;-67
2021/10/13 08:59:56;;;;;;;4.67;2.67;;;9.20;99.90;;;;;;4992745;28;20241;-67
2021/10/13 09:02:44;;;;;;;4.57;2.50;;;9.20;99.90;;;;;;4994514;28;20254;-67
2021/10/13 09:05:15;;;;;;;4.70;2.33;;;9.20;99.90;;;;;;4992715;28;20241;-67
2021/10/13 09:07:50;;;;;;;4.77;2.20;;;9.30;99.90;;;;;;5003676;28;20255;-67
2021/10/13 09:10:28;;;;;;;4.47;2.80;;;9.50;99.90;;;;;;4995084;28;20284;-67
2021/10/13 09:12:58;;;;;;;2.97;2.40;;;9.50;99.90;;;;;;4990002;28;20264;-65
2021/10/13 09:15:28;;;;;;;5.17;2.80;;;9.70;99.90;;;;;;4995198;28;20257;-66
2021/10/13 09:17:59;;;;;;;4.90;2.13;;;9.90;99.90;;;;;;4997397;28;20317;-65
2021/10/13 09:20:31;;;;;;;3.30;2.47;;;10.10;99.90;;;;;;4985708;28;20234;-67
2021/10/13 09:23:03;;;;;;;4.23;2.53;;;10.40;99.90;;;;;;4997113;28;20235;-67
2021/10/13 09:25:32;;;;;;;3.67;2.50;;;10.40;99.90;;;;;;4993620;28;20332;-67
2021/10/13 09:28:02;;;;;;;3.50;2.17;;;10.30;99.90;;;;;;4993925;28;20244;-65
2021/10/13 09:30:33;;;;;;;5.90;2.17;;;10.30;99.90;;;;;;4982022;28;20640;-67
2021/10/13 09:33:20;;;;;;;7.60;2.90;;;10.10;99.90;;;;;;4993839;28;20266;-67
2021/10/13 09:35:50;;;;;;;5.60;2.90;;;10.10;99.90;;;;;;4997290;28;20288;-67
2021/10/13 09:38:20;;;;;;;3.57;2.93;;;10.10;99.90;;;;;;4993905;28;20248;-67
2021/10/13 09:40:50;;;;;;;3.80;3.10;;;10.20;99.90;;;;;;4993624;28;20247;-67
2021/10/13 09:43:34;;;;;;;3.83;2.83;;;10.30;99.90;;;;;;4998217;28;20238;-67
2021/10/13 09:46:05;;;;;;;4.43;2.63;;;10.30;99.90;;;;;;4991321;28;20277;-66
2021/10/13 09:48:35;;;;;;;5.73;2.50;;;10.30;99.90;;;;;;4995339;28;20246;-67
2021/10/13 09:51:14;;;;;;;5.43;3.10;;;10.40;99.90;;;;;;4997182;28;20251;-66
2021/10/13 09:53:43;;;;;;;4.80;2.53;;;10.60;99.90;;;;;;4991508;28;20230;-67
2021/10/13 09:56:29;;;;;;;4.33;2.30;;;10.80;99.90;;;;;;4991703;28;20245;-67
2021/10/13 09:59:15;;;;;;;3.43;2.50;;;10.90;99.90;;;;;;4997160;28;20231;-66
2021/10/13 10:01:46;;;;;;;5.17;2.23;;;11.00;99.90;;;;;;4989795;28;20243;-66
2021/10/13 10:04:19;;;;;;;4.27;2.47;;;11.10;99.90;;;;;;4991895;28;20270;-66
2021/10/13 10:06:51;;;;;;;3.53;2.07;;;11.20;99.90;;;;;;4990780;28;20305;-67
2021/10/13 10:09:20;;;;;;;4.80;2.40;;;11.30;99.90;;;;;;4995559;28;20676;-65
2021/10/13 10:11:50;;;;;;;7.00;2.60;;;11.40;99.90;;;;;;4990754;28;20247;-66
2021/10/13 10:14:43;;;;;;;5.97;2.53;;;12.50;99.90;;;;;;4983334;28;20243;-66
2021/10/13 10:17:15;;;;;;;5.00;2.50;;;13.30;99.90;;;;;;4997928;28;20237;-66
2021/10/13 10:19:45;;;;;;;4.13;2.07;;;13.40;99.90;;;;;;4995982;28;20790;-67
2021/10/13 10:22:15;;;;;;;4.23;2.30;;;13.20;99.90;;;;;;4992212;28;20268;-67
2021/10/13 10:24:52;;;;;;;4.27;2.03;;;13.30;99.90;;;;;;4993208;28;20241;-67
2021/10/13 10:27:24;;;;;;;5.30;2.03;;;13.40;99.90;;;;;;4997002;28;20248;-67
2021/10/13 10:30:17;;;;;;;4.77;2.13;;;13.50;99.90;;;;;;4986788;28;20244;-66
2021/10/13 10:32:47;;;;;;;6.43;2.13;;;13.30;99.90;;;;;;4992272;28;20261;-67
2021/10/13 10:35:16;;;;;;;4.77;1.80;;;13.20;99.90;;;;;;5000269;28;20704;-66
2021/10/13 10:37:46;;;;;;;5.03;2.00;;;13.30;99.90;;;;;;4995631;28;20781;-66
2021/10/13 10:40:20;;;;;;;4.73;2.07;;;13.30;99.90;;;;;;4992940;28;20269;-66
2021/10/13 10:42:51;;;;;;;4.10;1.97;;;13.60;99.90;;;;;;4996341;28;20312;-66
2021/10/13 10:45:22;;;;;;;3.63;2.20;;;13.70;99.90;;;;;;4989467;28;20251;-66
2021/10/13 10:48:06;;;;;;;4.17;2.03;;;14.00;99.90;;;;;;4992400;28;20273;-66
2021/10/13 10:50:43;;;;;;;4.93;1.80;;;14.40;99.90;;;;;;4997816;28;20657;-67
2021/10/13 10:53:33;;;;;;;3.40;1.90;;;14.40;99.90;;;;;;5002423;28;20276;-66
2021/10/13 10:56:24;;;;;;;4.27;1.67;;;14.70;99.90;;;;;;4993580;28;20241;-66
2021/10/13 10:59:06;;;;;;;4.90;1.80;;;15.00;99.90;;;;;;4985437;28;20299;-66
2021/10/13 11:01:36;;;;;;;6.27;2.13;;;15.00;99.90;;;;;;4986670;28;20241;-66
2021/10/13 11:04:10;;;;;;;6.40;2.40;;;15.10;99.90;;;;;;4992218;28;20245;-66
2021/10/13 11:06:44;;;;;;;4.97;1.73;;;15.20;99.90;;;;;;4992864;28;20291;-66
2021/10/13 11:09:13;;;;;;;3.07;1.43;;;15.40;99.90;;;;;;4992427;28;20248;-66
2021/10/13 11:11:43;;;;;;;6.17;2.17;;;15.50;99.90;;;;;;4992730;28;20233;-67
2021/10/13 11:14:14;;;;;;;3.97;1.73;;;15.30;99.90;;;;;;4991359;28;20489;-67
2021/10/13 11:16:51;;;;;;;2.90;1.60;;;15.10;99.90;;;;;;4994700;28;20299;-67
2021/10/13 11:19:22;;;;;;;5.80;1.70;;;14.90;99.90;;;;;;4993291;28;20249;-66
2021/10/13 11:21:59;;;;;;;4.10;1.73;;;14.60;99.90;;;;;;4997622;28;20303;-66
2021/10/13 11:24:27;;;;;;;5.13;1.60;;;14.40;99.90;;;;;;4991547;28;20271;-67
2021/10/13 11:26:56;;;;;;;4.27;1.33;;;14.30;99.90;;;;;;4990028;28;20233;-65
2021/10/13 11:29:26;;;;;;;3.37;1.40;;;14.10;99.90;;;;;;4997608;28;20594;-67
2021/10/13 11:32:06;;;;;;;4.30;1.60;;;14.10;99.90;;;;;;5000036;28;20235;-66
2021/10/13 11:34:35;;;;;;;3.47;1.50;;;14.00;99.90;;;;;;4984166;28;20399;-67
2021/10/13 11:37:04;;;;;;;5.03;1.50;;;13.90;99.90;;;;;;4990383;28;20237;-67
2021/10/13 11:39:35;;;;;;;3.60;1.70;;;13.80;99.90;;;;;;4996058;28;20310;-67
2021/10/13 11:42:03;;;;;;;2.40;1.47;;;13.70;99.90;;;;;;4993335;28;20240;-65
2021/10/13 11:44:32;;;;;;;4.93;1.77;;;13.50;99.90;;;;;;4989258;28;20240;-67
2021/10/13 11:47:04;;;;;;;4.07;1.80;;;13.40;99.90;;;;;;4995537;28;20283;-67
2021/10/13 11:49:34;;;;;;;4.30;1.50;;;13.20;99.90;;;;;;4991105;28;20641;-67
2021/10/13 11:52:15;;;;;;;4.13;1.70;;;13.20;99.90;;;;;;4998600;28;20270;-67
2021/10/13 11:54:43;;;;;;;6.67;2.10;;;13.20;99.90;;;;;;4988366;28;20240;-67
2021/10/13 11:57:14;;;;;;;5.67;1.90;;;13.00;99.90;;;;;;4996004;28;20295;-66
2021/10/13 11:59:42;;;;;;;4.70;1.70;;;12.90;99.90;;;;;;4989903;28;20296;-66
2021/10/13 12:02:16;;;;;;;5.67;1.80;;;12.70;99.90;;;;;;4994744;28;20233;-66
2021/10/13 12:04:51;;;;;;;4.80;1.80;;;12.60;99.90;;;;;;4995315;28;20574;-67
2021/10/13 12:07:22;;;;;;;5.77;2.10;;;12.40;99.90;;;;;;4991093;28;20741;-67
2021/10/13 12:09:59;;;;;;;4.73;2.23;;;12.30;99.90;;;;;;4994146;28;20229;-67
2021/10/13 12:12:28;;;;;;;4.40;2.10;;;12.30;99.90;;;;;;4996128;28;20248;-66
2021/10/13 12:14:56;;;;;;;5.77;2.20;;;12.40;99.90;;;;;;4992727;28;20239;-67
2021/10/13 12:17:32;;;;;;;6.07;2.20;;;12.50;99.90;;;;;;4988054;28;20351;-67
2021/10/13 12:20:03;;;;;;;6.80;2.30;;;12.60;99.90;;;;;;4992930;28;20323;-67
2021/10/13 12:22:46;;;;;;;5.53;2.50;;;12.70;99.90;;;;;;4980835;28;20340;-67
2021/10/13 12:25:27;;;;;;;7.07;2.40;;;12.70;99.90;;;;;;4988766;28;20253;-68
2021/10/13 12:27:56;;;;;;;5.73;2.37;;;12.70;99.90;;;;;;4994097;28;20570;-66
2021/10/13 12:30:32;;;;;;;7.37;2.20;;;12.60;99.90;;;;;;4988895;28;20241;-67
2021/10/13 12:33:02;;;;;;;6.77;1.80;;;12.60;99.90;;;;;;4990917;28;20291;-67
2021/10/13 12:35:32;;;;;;;4.33;1.60;;;12.50;99.90;;;;;;4990622;28;20347;-67
2021/10/13 12:38:02;;;;;;;3.23;1.70;;;12.50;99.90;;;;;;4993961;28;20232;-67
2021/10/13 12:40:35;;;;;;;3.13;1.67;;;12.60;99.90;;;;;;4992020;28;20236;-67
2021/10/13 12:43:24;;;;;;;7.30;1.83;;;12.60;99.90;;;;;;4997120;28;20252;-63
2021/10/13 12:45:52;;;;;;;6.07;1.67;;;12.60;99.90;;;;;;4992359;28;20651;-67
2021/10/13 12:48:22;;;;;;;5.53;1.50;;;12.60;99.90;;;;;;4993898;28;20755;-67
2021/10/13 12:51:06;;;;;;;4.20;1.37;;;12.60;99.90;;;;;;4983428;28;20320;-66
2021/10/13 12:53:37;;;;;;;5.83;1.30;;;12.50;99.90;;;;;;4991295;28;20240;-67
2021/10/13 12:56:06;;;;;;;3.97;1.13;;;12.40;99.90;;;;;;4997068;28;20263;-65
2021/10/13 12:58:35;;;;;;;4.77;1.50;;;12.20;99.90;;;;;;4986710;28;20705;-67
2021/10/13 13:01:05;;;;;;;5.77;1.20;;;12.20;99.90;;;;;;4981782;28;20700;-65
2021/10/13 13:03:34;;;;;;;3.83;1.10;;;12.20;99.90;;;;;;4990157;28;20271;-67
2021/10/13 13:06:06;;;;;;;4.20;1.50;;;12.10;99.90;;;;;;4983891;28;20298;-66
2021/10/13 13:08:36;;;;;;;4.47;1.40;;;12.20;99.90;;;;;;4988948;28;20236;-65
2021/10/13 13:11:05;;;;;;;4.97;1.50;;;12.10;99.90;;;;;;4998246;28;20727;-67
2021/10/13 13:13:33;;;;;;;5.70;1.47;;;12.20;99.90;;;;;;4994318;28;20268;-67